Slingerlands, NY

3:37 AM EST on February 08, 2016 (GMT -0500)
SporeRdDelmar | | Change Station
CLOSE
Current Station
Personal Weather Station
Location: Delmar, NY
Elevation: 535 ft
Nearby Weather Stations

Elev 535 ft 42.61 °N, 73.92 °W | Updated 9 days ago

Mostly Cloudy
Mostly Cloudy
27 °F
Feels Like 19 °F
N
7
Wind Variable Wind from ENE
Gusts 13 mph

Today
High -- | Low -- °F
--% Chance of Precip.
Yesterday
High -- | Low -- °F
Precip. -- in
Pressure 29.93 in
Visibility 10.0 miles
Clouds Mostly Cloudy 25000 ft
Windchill 19 °F
Dew Point 23 °F
Humidity 85%
Rainfall in
Snow Depth Not available.
7:02 AM 5:17 PM
Waning Crescent, 0% visible
METAR KALB 080751Z 36003KT 10SM BKN250 M03/M07 A2992 RMK AO2 SLP135 T10281067
Pressure 29.93 in
Visibility 10.0 miles
Clouds Mostly Cloudy 25000 ft
Windchill 19 °F
Dew Point 23 °F
Humidity 85%
Rainfall in
Snow Depth Not available.
7:02 AM 5:17 PM
Waning Crescent, 0% visible
METAR KALB 080751Z 36003KT 10SM BKN250 M03/M07 A2992 RMK AO2 SLP135 T10281067

10-Day Weather Forecast

Almanac

Astronomy

Feb. 08, 2016 Rise Set
Actual Time
Civil Twilight
Nautical Twilight
Astronomical Twilight
Moon
Length of Visible Light
Length of Day
Tomorrow will be .
, % of the Moon is Illuminated

Today's Extremes

State Highs State Lows

Community

WunderPhotos

Upload Photos

1,891,412 photos uploaded!

WunderBlog® & News

Nearby

Air Quality

  Air Quality AQ Index Pollutant
Not available.

Snow Depth

Station Depth Elevation

Earthquake Activity

City Distance Mag. Time & Date
Minimum magnitude displayed is 2.5.

Coastal Water Temperatures

Place Temperature

Stations

Nearby Weather Stations

Station Location Temp. Windchill Dew Point Humidity Wind Precip. Elev Updated Type
                   

Watches & Warnings

There are currently no watches in effect.